Skip Navigation LinksHome page > Weather > Current weather Skip Navigation Links

Current Weather

Honolulu Intl, Honolulu

For information only: do not use for flight planning or navigation.
Latest weather
Observation time Wednesday, May 27, 2015 8:53 AM HST
Local time Wednesday, May 27, 2015 9:43 AM HST
Flight conditions Visual Meteorological Conditions
Winds
Wind speed calm
Visibility 10 mi.
Sky condition
Ceiling unlimited
Cloud layer few clouds 2,700 ft.
Cloud layer scattered clouds 4,500 ft.
Cloud layer scattered clouds 20,000 ft.
Temperature 80°F
Dewpoint 62°F
Altimeter 29.94 in.Hg
Derived measurements
Relative humidity 54%
Heat index 81°F
Density altitude 1603 ft.
Sea-level pressure 29.94 in.Hg
Remarks
Automated weather observing station with precipitation discriminator.
METAR PHNL 271853Z 00000KT 10SM FEW027 SCT045 SCT200 27/17 A2994 RMK AO2 SLP138 T02670167

Settings

Location code

InnerDrive.Weather 4.0.5567.0 Release CLR 4.0.30319.34014
Copyright ©2015 Inner Drive Technology. All rights reserved. Portions Copyright ©1986-2015 David Braverman.

Find weather

Site navigation


Skip Navigation Links

Place info

Page info

PayPal - The safer, easier way to pay online!

Return home.

Copyright ©2015 Inner Drive Technology. Purveyors of fine, hand-crafted computer software. Page printed 2015-05-27T19:43:44 UTC.